Time;durP1;ratioP1;P1;durP2;ratioP2;P2;SDS_P1;SDS_P2;PMS_P1;PMS_P2;Temp;Humidity;BMP_temperature;BMP_pressure;BME280_temperature;BME280_humidity;BME280_pressure;Samples;Min_cycle;Max_cycle;Signal;HPM_P1;HPM_P2
2021/03/17 00:00:15;;;;;;;6.47;4.95;;;10.50;62.50;;;;;;2067191;28;20037;-61
2021/03/17 00:01:36;;;;;;;8.35;5.50;;;10.50;62.70;;;;;;2069556;28;20369;-60
2021/03/17 00:02:57;;;;;;;6.13;5.05;;;10.50;62.50;;;;;;2069104;28;20099;-60
2021/03/17 00:04:18;;;;;;;7.28;5.57;;;10.50;62.50;;;;;;2055303;28;20031;-59
2021/03/17 00:05:43;;;;;;;7.70;5.55;;;10.50;62.50;;;;;;2061743;28;20023;-60
2021/03/17 00:07:04;;;;;;;7.30;5.82;;;10.50;62.50;;;;;;2066230;28;20049;-60
2021/03/17 00:08:25;;;;;;;7.38;5.47;;;10.50;62.40;;;;;;2064662;28;20117;-59
2021/03/17 00:09:46;;;;;;;5.90;5.30;;;10.50;62.40;;;;;;2069597;28;20038;-60
2021/03/17 00:11:07;;;;;;;5.53;4.93;;;10.50;62.40;;;;;;2068719;28;20045;-60
2021/03/17 00:12:28;;;;;;;7.20;5.18;;;10.50;62.40;;;;;;2063096;28;20034;-60
2021/03/17 00:13:48;;;;;;;5.95;5.35;;;10.50;62.40;;;;;;2066495;28;20076;-60
2021/03/17 00:15:12;;;;;;;6.90;5.47;;;10.50;62.40;;;;;;2066833;28;20465;-60
2021/03/17 00:16:33;;;;;;;6.10;5.15;;;10.40;62.40;;;;;;2060754;28;20030;-59
2021/03/17 00:17:54;;;;;;;6.57;5.25;;;10.40;62.30;;;;;;2059956;28;20641;-60
2021/03/17 00:19:15;;;;;;;6.38;5.78;;;10.40;62.40;;;;;;2068591;28;20049;-60
2021/03/17 00:20:37;;;;;;;5.90;5.30;;;10.40;62.40;;;;;;2065608;28;20567;-60
2021/03/17 00:21:58;;;;;;;5.90;5.25;;;10.50;62.50;;;;;;2070239;28;20145;-60
2021/03/17 00:23:19;;;;;;;5.95;5.28;;;10.40;62.50;;;;;;2068375;28;20045;-60
2021/03/17 00:24:40;;;;;;;6.55;5.70;;;10.40;62.60;;;;;;2061336;28;20496;-60
2021/03/17 00:26:00;;;;;;;6.35;5.40;;;10.40;62.50;;;;;;2067862;28;20424;-60
2021/03/17 00:27:21;;;;;;;6.55;5.88;;;10.40;62.50;;;;;;2063482;28;20030;-59
2021/03/17 00:28:42;;;;;;;5.90;5.30;;;10.40;62.50;;;;;;2064298;28;20580;-59
2021/03/17 00:30:07;;;;;;;7.07;5.78;;;10.40;62.40;;;;;;2061983;28;20046;-59
2021/03/17 00:31:28;;;;;;;6.50;5.10;;;10.40;62.60;;;;;;2063542;28;20041;-60
2021/03/17 00:32:49;;;;;;;5.70;5.20;;;10.40;62.60;;;;;;2065529;28;20049;-60
2021/03/17 00:34:10;;;;;;;6.13;5.35;;;10.40;62.50;;;;;;2063314;28;20022;-60
2021/03/17 00:35:31;;;;;;;6.28;5.45;;;10.40;62.60;;;;;;2065132;28;20038;-60
2021/03/17 00:36:52;;;;;;;5.20;4.70;;;10.40;62.60;;;;;;2064588;28;20089;-59
2021/03/17 00:38:13;;;;;;;5.95;5.38;;;10.40;62.60;;;;;;2064376;28;20023;-60
2021/03/17 00:39:34;;;;;;;5.68;5.13;;;10.30;62.50;;;;;;2067126;28;20026;-61
2021/03/17 00:40:55;;;;;;;7.97;5.28;;;10.30;62.50;;;;;;2058660;28;20062;-59
2021/03/17 00:42:16;;;;;;;6.18;5.10;;;10.30;62.50;;;;;;2065637;28;20030;-60
2021/03/17 00:43:37;;;;;;;7.43;5.80;;;10.30;62.60;;;;;;2056210;28;20059;-59
2021/03/17 00:44:58;;;;;;;6.30;5.70;;;10.30;62.70;;;;;;2060791;28;20118;-59
2021/03/17 00:46:19;;;;;;;6.07;4.90;;;10.30;62.70;;;;;;2063262;28;20076;-59
2021/03/17 00:47:40;;;;;;;6.25;5.07;;;10.30;62.70;;;;;;2069495;28;20037;-59
2021/03/17 00:49:01;;;;;;;6.13;5.50;;;10.30;62.70;;;;;;2063118;28;20026;-60
2021/03/17 00:50:23;;;;;;;5.47;4.97;;;10.30;62.80;;;;;;2066804;28;20583;-60
2021/03/17 00:51:44;;;;;;;5.22;4.72;;;10.30;62.80;;;;;;2068040;28;20022;-61
2021/03/17 00:53:05;;;;;;;6.75;5.43;;;10.30;62.80;;;;;;2067205;28;20049;-60
2021/03/17 00:54:26;;;;;;;6.68;5.13;;;10.30;62.80;;;;;;2061160;28;20034;-60
2021/03/17 00:55:47;;;;;;;5.57;5.07;;;10.20;62.80;;;;;;2065634;28;20018;-60
2021/03/17 00:57:08;;;;;;;6.28;5.22;;;10.20;62.80;;;;;;2062118;28;20023;-60
2021/03/17 00:58:29;;;;;;;5.70;5.10;;;10.20;62.80;;;;;;2060520;28;20023;-60
2021/03/17 00:59:50;;;;;;;6.05;5.47;;;10.20;62.80;;;;;;2062161;28;20034;-59
2021/03/17 01:01:11;;;;;;;6.63;4.97;;;10.20;62.90;;;;;;2061191;28;20033;-59
2021/03/17 01:02:32;;;;;;;6.10;5.50;;;10.20;63.00;;;;;;2064605;28;20023;-59
2021/03/17 01:03:52;;;;;;;5.88;5.38;;;10.10;62.90;;;;;;2070679;28;20172;-60
2021/03/17 01:05:14;;;;;;;6.15;5.57;;;10.10;62.90;;;;;;2061540;28;20042;-62
2021/03/17 01:06:35;;;;;;;6.50;5.43;;;10.10;63.00;;;;;;2063335;28;20119;-60
2021/03/17 01:07:56;;;;;;;5.35;4.78;;;10.10;63.10;;;;;;2064307;28;20033;-61
2021/03/17 01:09:17;;;;;;;5.30;4.80;;;10.10;63.10;;;;;;2054246;28;20130;-61
2021/03/17 01:10:44;;;;;;;6.22;5.63;;;10.10;63.10;;;;;;2059770;28;20026;-60
2021/03/17 01:12:07;;;;;;;5.47;4.95;;;10.10;63.10;;;;;;2067244;28;20033;-60
2021/03/17 01:13:28;;;;;;;5.53;5.03;;;10.10;63.10;;;;;;2064634;28;20034;-59
2021/03/17 01:14:49;;;;;;;5.57;5.07;;;10.10;63.10;;;;;;2066916;28;20050;-59
2021/03/17 01:16:10;;;;;;;5.70;5.10;;;10.10;63.10;;;;;;2066376;28;20053;-60
2021/03/17 01:17:31;;;;;;;5.45;4.95;;;10.10;63.10;;;;;;2064144;28;20141;-61
2021/03/17 01:18:52;;;;;;;5.40;4.90;;;10.10;63.20;;;;;;2065745;28;20041;-60
2021/03/17 01:20:14;;;;;;;4.90;4.47;;;10.10;63.20;;;;;;2062180;28;20049;-60
2021/03/17 01:21:35;;;;;;;5.43;4.93;;;10.10;63.20;;;;;;2053608;28;20027;-60
2021/03/17 01:22:57;;;;;;;5.80;5.30;;;10.10;63.20;;;;;;2067032;28;20042;-60
2021/03/17 01:24:18;;;;;;;5.88;4.88;;;10.10;63.30;;;;;;2068086;28;20421;-60
2021/03/17 01:25:42;;;;;;;7.18;5.20;;;10.10;63.20;;;;;;2062889;28;20044;-60
2021/03/17 01:27:03;;;;;;;5.53;4.82;;;10.10;63.10;;;;;;2064001;28;20389;-60
2021/03/17 01:28:24;;;;;;;5.68;4.85;;;10.10;63.10;;;;;;2058454;28;20030;-60
2021/03/17 01:29:45;;;;;;;5.45;4.95;;;10.00;63.00;;;;;;2063799;28;20026;-60
2021/03/17 01:31:06;;;;;;;5.32;4.72;;;10.10;63.10;;;;;;2061751;28;20089;-60
2021/03/17 01:32:27;;;;;;;6.20;4.78;;;10.00;63.10;;;;;;2059527;28;20042;-60
2021/03/17 01:33:48;;;;;;;5.63;5.13;;;10.00;63.10;;;;;;2061975;28;20446;-60
2021/03/17 01:35:12;;;;;;;5.63;5.10;;;10.00;63.00;;;;;;2059752;28;20038;-60
2021/03/17 01:36:33;;;;;;;5.38;4.70;;;10.10;63.10;;;;;;2063332;28;20027;-60
2021/03/17 01:37:54;;;;;;;7.18;5.70;;;10.00;63.00;;;;;;2064533;28;20061;-60
2021/03/17 01:39:15;;;;;;;5.60;4.95;;;10.00;63.10;;;;;;2062979;28;20085;-61
2021/03/17 01:40:38;;;;;;;5.50;5.00;;;10.00;63.20;;;;;;2061877;28;20030;-61
2021/03/17 01:41:59;;;;;;;6.97;5.05;;;10.00;63.30;;;;;;2063354;28;20112;-60
2021/03/17 01:43:20;;;;;;;9.38;5.97;;;10.00;63.30;;;;;;2058232;28;20031;-60
2021/03/17 01:44:41;;;;;;;5.95;5.35;;;10.00;63.30;;;;;;2063925;28;20354;-59
2021/03/17 01:46:03;;;;;;;6.65;5.75;;;10.00;63.30;;;;;;2060897;28;20066;-59
2021/03/17 01:47:24;;;;;;;7.20;5.65;;;10.00;63.30;;;;;;2058604;28;20037;-60
2021/03/17 01:48:44;;;;;;;6.40;5.43;;;10.00;63.40;;;;;;2063845;28;20230;-60
2021/03/17 01:50:09;;;;;;;7.72;5.40;;;10.00;63.30;;;;;;2061567;28;20149;-59
2021/03/17 01:51:30;;;;;;;6.07;5.47;;;10.00;63.30;;;;;;2062417;28;20089;-61
2021/03/17 01:52:51;;;;;;;5.72;5.15;;;10.00;63.10;;;;;;2067885;28;20081;-61
2021/03/17 01:54:12;;;;;;;6.72;5.35;;;10.00;63.10;;;;;;2068341;28;20135;-60
2021/03/17 01:55:33;;;;;;;6.15;5.50;;;10.00;63.00;;;;;;2062085;28;20030;-60
2021/03/17 01:56:54;;;;;;;6.22;5.63;;;10.00;63.10;;;;;;2062553;28;20034;-60
2021/03/17 01:58:17;;;;;;;5.95;5.35;;;10.00;63.10;;;;;;2063119;28;20030;-60
2021/03/17 01:59:38;;;;;;;6.70;5.55;;;10.00;63.10;;;;;;2064431;28;20041;-60
2021/03/17 02:01:00;;;;;;;6.03;5.47;;;10.00;63.10;;;;;;2068232;28;20030;-60
2021/03/17 02:02:20;;;;;;;5.82;5.20;;;10.00;63.00;;;;;;2061707;28;20038;-60
2021/03/17 02:03:42;;;;;;;5.72;5.15;;;10.00;62.90;;;;;;2065643;28;20026;-60
2021/03/17 02:05:10;;;;;;;5.93;5.18;;;10.00;62.90;;;;;;2057850;28;20045;-59
2021/03/17 02:06:31;;;;;;;5.63;5.13;;;10.00;63.00;;;;;;2060099;28;20116;-59
2021/03/17 02:07:57;;;;;;;5.13;4.68;;;10.00;62.90;;;;;;2065721;28;20030;-60
2021/03/17 02:09:18;;;;;;;5.32;4.88;;;10.00;62.90;;;;;;2067283;28;20044;-60
2021/03/17 02:10:39;;;;;;;7.85;4.88;;;9.90;62.80;;;;;;2065733;28;20038;-59
2021/03/17 02:12:17;;;;;;;6.20;5.60;;;10.00;62.90;;;;;;2066763;28;21579;-59
2021/03/17 02:14:08;;;;;;;5.68;4.82;;;9.90;63.00;;;;;;2063685;28;20030;-60
2021/03/17 02:16:01;;;;;;;5.97;5.38;;;9.90;63.00;;;;;;2068831;28;20066;-60
2021/03/17 02:17:27;;;;;;;5.68;5.15;;;9.90;63.00;;;;;;2061661;28;20053;-59
2021/03/17 02:19:06;;;;;;;6.82;5.78;;;9.90;62.70;;;;;;2065718;28;20034;-59
2021/03/17 02:20:45;;;;;;;6.47;5.47;;;9.90;62.80;;;;;;2061329;28;20042;-61
2021/03/17 02:22:31;;;;;;;6.80;6.10;;;9.90;62.80;;;;;;2068997;28;20128;-59
2021/03/17 02:24:31;;;;;;;6.32;5.15;;;9.90;63.00;;;;;;2064475;28;20554;-60
2021/03/17 02:26:11;;;;;;;5.78;5.28;;;9.90;63.20;;;;;;2030045;28;20064;-60
2021/03/17 02:28:23;;;;;;;5.75;5.25;;;9.90;62.80;;;;;;2034548;29;20039;-60
2021/03/17 02:30:12;;;;;;;5.22;4.72;;;9.90;62.90;;;;;;2032422;29;20527;-60
2021/03/17 02:31:45;;;;;;;5.25;4.75;;;9.80;62.70;;;;;;2037756;28;20032;-60
2021/03/17 02:33:45;;;;;;;5.68;5.05;;;9.90;62.60;;;;;;2069019;28;20151;-60
2021/03/17 02:35:08;;;;;;;4.78;4.38;;;9.80;62.70;;;;;;2071509;28;20133;-61
2021/03/17 02:36:49;;;;;;;5.10;4.10;;;9.80;62.40;;;;;;2069979;28;20062;-60
2021/03/17 02:38:14;;;;;;;5.05;4.65;;;9.80;62.40;;;;;;2060356;28;20101;-60
2021/03/17 02:39:39;;;;;;;5.88;4.40;;;9.80;62.40;;;;;;2060573;28;20034;-60
2021/03/17 02:41:01;;;;;;;4.45;4.05;;;9.80;62.30;;;;;;2066191;28;20471;-60
2021/03/17 02:42:34;;;;;;;4.50;4.10;;;9.80;62.30;;;;;;2063648;28;20042;-60
2021/03/17 02:43:58;;;;;;;4.65;4.22;;;9.70;62.30;;;;;;2057029;28;20093;-60
2021/03/17 02:45:26;;;;;;;3.85;3.55;;;9.80;62.20;;;;;;2060765;28;20389;-60
2021/03/17 02:46:47;;;;;;;4.07;3.65;;;9.70;62.30;;;;;;2062221;28;20497;-60
2021/03/17 02:48:23;;;;;;;6.85;3.80;;;9.70;62.20;;;;;;2064728;28;20369;-61
2021/03/17 02:49:51;;;;;;;4.28;3.95;;;9.70;62.40;;;;;;2066261;28;20042;-60
2021/03/17 02:51:31;;;;;;;3.90;3.50;;;9.70;62.30;;;;;;2063955;28;20331;-60
2021/03/17 02:52:55;;;;;;;4.18;3.78;;;9.70;62.40;;;;;;2063715;28;20342;-60
2021/03/17 02:54:19;;;;;;;4.20;3.80;;;9.70;62.40;;;;;;2068242;28;20057;-59
2021/03/17 02:55:51;;;;;;;4.72;4.32;;;9.60;62.30;;;;;;2064818;28;20101;-61
2021/03/17 02:57:25;;;;;;;4.55;4.15;;;9.60;62.40;;;;;;2069743;28;20022;-60
2021/03/17 02:58:47;;;;;;;4.07;3.67;;;9.60;62.40;;;;;;2069962;28;20033;-60
2021/03/17 03:00:13;;;;;;;4.20;3.90;;;9.60;62.40;;;;;;2066653;28;20049;-60
2021/03/17 03:01:34;;;;;;;4.45;4.05;;;9.60;62.70;;;;;;2068921;28;20027;-59
2021/03/17 03:02:58;;;;;;;4.30;3.90;;;9.60;62.60;;;;;;2063670;28;20022;-59
2021/03/17 03:04:22;;;;;;;4.65;4.18;;;9.60;62.60;;;;;;2058433;28;20062;-59
2021/03/17 03:05:43;;;;;;;4.65;4.25;;;9.60;62.60;;;;;;2062564;28;20681;-60
2021/03/17 03:07:04;;;;;;;4.32;4.00;;;9.60;62.60;;;;;;2067366;28;20034;-60
2021/03/17 03:08:27;;;;;;;5.25;4.35;;;9.50;62.60;;;;;;2061092;28;20034;-61
2021/03/17 03:09:50;;;;;;;4.70;4.30;;;9.50;62.70;;;;;;2065866;28;20027;-60
2021/03/17 03:11:14;;;;;;;4.57;4.13;;;9.60;62.80;;;;;;2070320;28;20061;-59
2021/03/17 03:12:37;;;;;;;4.80;4.35;;;9.50;62.80;;;;;;2062129;28;20069;-60
2021/03/17 03:13:58;;;;;;;4.53;4.13;;;9.50;62.70;;;;;;2067803;28;20072;-60
2021/03/17 03:15:22;;;;;;;4.82;3.83;;;9.50;62.70;;;;;;2062698;28;20042;-61
2021/03/17 03:16:43;;;;;;;4.35;3.95;;;9.50;62.70;;;;;;2065097;28;20097;-59
2021/03/17 03:18:08;;;;;;;4.25;3.85;;;9.50;62.70;;;;;;2064361;28;20039;-59
2021/03/17 03:19:32;;;;;;;4.22;3.92;;;9.50;62.80;;;;;;2064986;28;20535;-61
2021/03/17 03:20:55;;;;;;;4.95;4.45;;;9.50;63.00;;;;;;2064270;28;20045;-60
2021/03/17 03:22:18;;;;;;;4.60;4.20;;;9.50;63.10;;;;;;2063787;28;20549;-59
2021/03/17 03:23:39;;;;;;;4.13;3.72;;;9.50;63.10;;;;;;2063842;28;20128;-61
2021/03/17 03:25:00;;;;;;;4.47;4.07;;;9.50;63.10;;;;;;2063001;28;20046;-61
2021/03/17 03:26:22;;;;;;;4.50;3.97;;;9.50;63.00;;;;;;2064286;28;20439;-60
2021/03/17 03:27:45;;;;;;;5.07;4.68;;;9.40;63.00;;;;;;2063855;28;20827;-60
2021/03/17 03:29:07;;;;;;;4.90;4.18;;;9.40;63.20;;;;;;2068932;28;20048;-60
2021/03/17 03:30:29;;;;;;;4.10;3.80;;;9.40;63.10;;;;;;2060272;28;20373;-61
2021/03/17 03:31:50;;;;;;;4.40;4.00;;;9.40;63.20;;;;;;2066003;28;20034;-60
2021/03/17 03:33:12;;;;;;;4.28;3.88;;;9.40;63.20;;;;;;2069160;28;20030;-60
2021/03/17 03:34:33;;;;;;;4.35;3.97;;;9.40;63.20;;;;;;2059857;28;20027;-60
2021/03/17 03:35:54;;;;;;;4.65;4.25;;;9.40;63.10;;;;;;2059254;28;20060;-60
2021/03/17 03:37:16;;;;;;;5.22;4.03;;;9.40;63.10;;;;;;2068729;28;20029;-59
2021/03/17 03:38:37;;;;;;;3.92;3.63;;;9.40;63.10;;;;;;2062729;28;20026;-61
2021/03/17 03:39:58;;;;;;;4.07;3.70;;;9.40;63.10;;;;;;2065051;28;20069;-61
2021/03/17 03:41:19;;;;;;;4.53;4.13;;;9.40;63.10;;;;;;2068542;28;20028;-61
2021/03/17 03:42:41;;;;;;;4.30;4.00;;;9.40;63.10;;;;;;2065895;28;20025;-61
2021/03/17 03:44:04;;;;;;;4.60;4.18;;;9.40;63.10;;;;;;2068848;28;20088;-60
2021/03/17 03:45:25;;;;;;;3.88;3.58;;;9.40;63.20;;;;;;2064181;28;20038;-59
2021/03/17 03:46:46;;;;;;;4.75;4.28;;;9.40;63.20;;;;;;2067231;28;20064;-59
2021/03/17 03:48:08;;;;;;;4.22;3.90;;;9.40;63.40;;;;;;2064838;28;20034;-62
2021/03/17 03:49:29;;;;;;;4.13;3.80;;;9.40;63.40;;;;;;2063535;28;20034;-59
2021/03/17 03:50:52;;;;;;;4.82;3.90;;;9.40;63.30;;;;;;2064200;28;20041;-61
2021/03/17 03:52:20;;;;;;;4.63;4.13;;;9.40;63.30;;;;;;2062785;28;20031;-59
2021/03/17 03:54:04;;;;;;;4.53;4.13;;;9.40;63.40;;;;;;2060280;28;20033;-59
2021/03/17 03:55:33;;;;;;;4.30;3.92;;;9.30;63.40;;;;;;2058086;28;20556;-60
2021/03/17 03:57:03;;;;;;;4.20;3.80;;;9.30;63.40;;;;;;2063912;28;20050;-60
2021/03/17 03:58:47;;;;;;;4.20;3.83;;;9.30;63.20;;;;;;2059662;28;20053;-60
2021/03/17 04:00:09;;;;;;;4.07;3.78;;;9.30;63.30;;;;;;2063232;28;20777;-60
2021/03/17 04:02:11;;;;;;;4.38;4.00;;;9.30;63.10;;;;;;2064918;28;20026;-61
2021/03/17 04:03:36;;;;;;;4.18;3.88;;;9.30;63.50;;;;;;2037268;29;20030;-61
2021/03/17 04:04:59;;;;;;;4.65;4.22;;;9.30;63.10;;;;;;2038984;29;20035;-60
2021/03/17 04:06:20;;;;;;;4.63;4.22;;;9.30;63.10;;;;;;2039963;29;20048;-60
2021/03/17 04:07:44;;;;;;;4.40;4.05;;;9.30;63.20;;;;;;2040366;29;20068;-61
2021/03/17 04:09:06;;;;;;;3.78;3.47;;;9.20;63.20;;;;;;2058690;28;20034;-61
2021/03/17 04:10:28;;;;;;;3.67;3.45;;;9.20;63.30;;;;;;2050926;28;20209;-61
2021/03/17 04:11:50;;;;;;;4.38;3.97;;;9.20;63.40;;;;;;2060864;28;21489;-61
2021/03/17 04:13:12;;;;;;;4.35;4.03;;;9.20;63.50;;;;;;2069147;28;20030;-60
2021/03/17 04:14:35;;;;;;;3.67;3.38;;;9.20;63.60;;;;;;2059791;28;20037;-60
2021/03/17 04:15:57;;;;;;;4.07;3.67;;;9.20;63.70;;;;;;2064187;28;20553;-60
2021/03/17 04:17:31;;;;;;;4.00;3.70;;;9.20;63.70;;;;;;2069253;28;20052;-61
2021/03/17 04:18:55;;;;;;;4.03;3.65;;;9.20;63.90;;;;;;2063794;28;20390;-60
2021/03/17 04:20:20;;;;;;;3.80;3.50;;;9.20;63.80;;;;;;2062452;28;20121;-60
2021/03/17 04:21:41;;;;;;;3.92;3.63;;;9.20;63.80;;;;;;2060828;28;20037;-60
2021/03/17 04:23:06;;;;;;;3.70;3.40;;;9.20;63.70;;;;;;2068441;28;20129;-59
2021/03/17 04:24:29;;;;;;;3.53;3.22;;;9.20;63.70;;;;;;2058361;28;20105;-61
2021/03/17 04:25:53;;;;;;;3.25;3.05;;;9.20;63.70;;;;;;2065749;28;20030;-61
2021/03/17 04:27:14;;;;;;;3.20;3.00;;;9.10;63.60;;;;;;2063758;28;20038;-61
2021/03/17 04:28:37;;;;;;;3.30;3.00;;;9.10;63.50;;;;;;2067943;28;20030;-59
2021/03/17 04:30:00;;;;;;;3.50;3.20;;;9.20;63.40;;;;;;2069610;28;20029;-61
2021/03/17 04:31:22;;;;;;;2.85;2.60;;;9.20;63.50;;;;;;2064095;28;20536;-61
2021/03/17 04:32:46;;;;;;;2.95;2.75;;;9.20;63.50;;;;;;2061448;28;20088;-59
2021/03/17 04:34:08;;;;;;;3.55;3.25;;;9.20;63.40;;;;;;2066167;28;20029;-60
2021/03/17 04:35:29;;;;;;;3.30;3.00;;;9.20;63.50;;;;;;2063621;28;20113;-58
2021/03/17 04:36:52;;;;;;;3.30;3.10;;;9.10;63.30;;;;;;2066792;28;20517;-61
2021/03/17 04:38:14;;;;;;;2.80;2.60;;;9.10;63.50;;;;;;2063454;28;20027;-60
2021/03/17 04:39:37;;;;;;;3.33;3.03;;;9.10;63.50;;;;;;2068851;28;20022;-60
2021/03/17 04:40:58;;;;;;;3.17;2.97;;;9.10;63.50;;;;;;2069283;28;20076;-60
2021/03/17 04:42:19;;;;;;;3.22;2.95;;;9.10;63.60;;;;;;2068155;28;20034;-59
2021/03/17 04:43:42;;;;;;;3.28;3.08;;;9.10;63.60;;;;;;2063791;28;20038;-59
2021/03/17 04:45:04;;;;;;;3.20;3.00;;;9.10;63.80;;;;;;2065984;28;20519;-59
2021/03/17 04:46:25;;;;;;;3.30;3.00;;;9.10;63.70;;;;;;2064897;28;20026;-59
2021/03/17 04:47:51;;;;;;;3.75;3.45;;;9.10;63.70;;;;;;2063936;28;20021;-58
2021/03/17 04:49:12;;;;;;;3.58;3.38;;;9.00;63.70;;;;;;2069387;28;20520;-61
2021/03/17 04:50:34;;;;;;;3.35;3.10;;;9.10;63.70;;;;;;2062309;28;20085;-61
2021/03/17 04:51:55;;;;;;;3.63;3.33;;;9.10;63.80;;;;;;2066086;28;20416;-61
2021/03/17 04:53:17;;;;;;;3.25;3.05;;;9.00;63.70;;;;;;2060429;28;20035;-60
2021/03/17 04:54:38;;;;;;;3.40;3.10;;;9.00;63.70;;;;;;2056958;28;20045;-60
2021/03/17 04:56:05;;;;;;;3.80;3.50;;;9.10;63.80;;;;;;2062936;28;20026;-60
2021/03/17 04:57:27;;;;;;;3.40;3.10;;;9.00;63.80;;;;;;2062834;28;20034;-61
2021/03/17 04:58:51;;;;;;;3.13;2.88;;;9.00;63.90;;;;;;2066529;28;20092;-60
2021/03/17 05:00:15;;;;;;;3.42;3.13;;;9.00;63.90;;;;;;2061461;28;20031;-60
2021/03/17 05:01:42;;;;;;;3.20;3.00;;;9.00;64.00;;;;;;2064255;28;20092;-61
2021/03/17 05:03:05;;;;;;;3.75;3.45;;;9.00;64.10;;;;;;2066694;28;20061;-60
2021/03/17 05:04:27;;;;;;;3.35;3.05;;;9.00;64.10;;;;;;2058720;28;20188;-61
2021/03/17 05:05:50;;;;;;;3.22;3.03;;;9.00;64.10;;;;;;2065090;28;20045;-60
2021/03/17 05:07:12;;;;;;;3.10;2.90;;;9.00;64.20;;;;;;2066854;28;20038;-60
2021/03/17 05:08:36;;;;;;;2.95;2.75;;;9.00;64.20;;;;;;2060433;28;20030;-60
2021/03/17 05:09:58;;;;;;;2.83;2.63;;;9.00;64.10;;;;;;2063433;28;20370;-61
2021/03/17 05:11:19;;;;;;;3.30;2.80;;;9.00;64.10;;;;;;2065151;28;20121;-60
2021/03/17 05:12:41;;;;;;;3.55;2.72;;;9.00;64.00;;;;;;2068192;28;20680;-60
2021/03/17 05:14:04;;;;;;;3.10;2.90;;;9.00;64.10;;;;;;2062752;28;20062;-61
2021/03/17 05:15:26;;;;;;;3.03;2.83;;;9.00;64.10;;;;;;2060774;28;20450;-60
2021/03/17 05:16:47;;;;;;;2.92;2.72;;;9.00;64.10;;;;;;2061212;28;20058;-60
2021/03/17 05:18:11;;;;;;;2.85;2.67;;;9.00;64.20;;;;;;2064355;28;20023;-60
2021/03/17 05:19:34;;;;;;;3.17;2.97;;;9.00;64.30;;;;;;2061552;28;20061;-60
2021/03/17 05:20:56;;;;;;;3.20;2.90;;;9.00;64.30;;;;;;2063158;28;20022;-60
2021/03/17 05:22:18;;;;;;;2.90;2.70;;;9.00;64.30;;;;;;2060306;28;20470;-61
2021/03/17 05:23:40;;;;;;;3.05;2.75;;;9.00;64.40;;;;;;2063939;28;20070;-60
2021/03/17 05:25:05;;;;;;;3.22;2.97;;;9.00;64.50;;;;;;2059963;28;20057;-61
2021/03/17 05:26:27;;;;;;;3.42;3.13;;;9.00;64.60;;;;;;2061274;28;20068;-60
2021/03/17 05:27:54;;;;;;;3.65;3.30;;;9.00;64.60;;;;;;2063336;28;20032;-61
2021/03/17 05:29:19;;;;;;;4.05;3.55;;;9.00;64.60;;;;;;2065898;28;20030;-60
2021/03/17 05:30:41;;;;;;;3.75;3.45;;;9.00;64.50;;;;;;2058657;28;20146;-61
2021/03/17 05:32:03;;;;;;;3.97;3.67;;;9.00;64.60;;;;;;2062013;28;20033;-60
2021/03/17 05:33:29;;;;;;;3.83;3.53;;;9.00;64.60;;;;;;2061270;28;20074;-60
2021/03/17 05:35:03;;;;;;;3.70;3.40;;;9.00;64.80;;;;;;2063098;28;20034;-60
2021/03/17 05:36:24;;;;;;;4.20;3.90;;;9.10;65.10;;;;;;2064680;28;20034;-60
2021/03/17 05:37:46;;;;;;;4.43;4.03;;;9.10;64.90;;;;;;2064036;28;20031;-61
2021/03/17 05:39:07;;;;;;;4.40;4.05;;;9.10;64.90;;;;;;2059248;28;20031;-60
2021/03/17 05:40:29;;;;;;;4.45;4.05;;;9.10;64.90;;;;;;2065304;28;20119;-61
2021/03/17 05:41:50;;;;;;;4.68;4.28;;;9.10;64.90;;;;;;2061439;28;20030;-60
2021/03/17 05:43:11;;;;;;;4.38;4.05;;;9.10;65.00;;;;;;2066176;28;20385;-60
2021/03/17 05:44:32;;;;;;;4.28;3.88;;;9.10;65.10;;;;;;2064880;28;20616;-60
2021/03/17 05:45:55;;;;;;;4.55;4.15;;;9.10;65.20;;;;;;2061642;28;20124;-60
2021/03/17 05:47:18;;;;;;;4.55;4.15;;;9.10;65.20;;;;;;2064161;28;20069;-60
2021/03/17 05:48:41;;;;;;;4.50;4.10;;;9.10;65.30;;;;;;2065944;28;20027;-60
2021/03/17 05:50:04;;;;;;;4.97;4.57;;;9.10;65.20;;;;;;2065011;28;20410;-60
2021/03/17 05:51:25;;;;;;;5.18;4.70;;;9.10;65.10;;;;;;2061683;28;20469;-60
2021/03/17 05:52:46;;;;;;;4.85;4.43;;;9.10;65.20;;;;;;2063531;28;20119;-60
2021/03/17 05:54:09;;;;;;;5.28;4.70;;;9.20;65.20;;;;;;2062071;28;20030;-61
2021/03/17 05:55:30;;;;;;;4.57;4.18;;;9.20;65.30;;;;;;2066491;28;20046;-61
2021/03/17 05:56:52;;;;;;;4.82;4.43;;;9.10;65.20;;;;;;2065230;28;20382;-61
2021/03/17 05:58:13;;;;;;;5.03;4.53;;;9.10;65.30;;;;;;2066725;28;20042;-61
2021/03/17 05:59:34;;;;;;;5.32;4.82;;;9.10;65.30;;;;;;2063733;28;20026;-60
2021/03/17 06:00:55;;;;;;;5.38;4.88;;;9.10;65.40;;;;;;2062580;28;20022;-60
2021/03/17 06:02:17;;;;;;;5.20;4.80;;;9.10;65.40;;;;;;2067246;28;20037;-60
2021/03/17 06:03:38;;;;;;;5.28;4.78;;;9.20;65.50;;;;;;2064446;28;20066;-60
2021/03/17 06:05:00;;;;;;;5.47;4.93;;;9.10;65.30;;;;;;2065203;28;20444;-60
2021/03/17 06:06:22;;;;;;;5.05;4.63;;;9.10;65.40;;;;;;2067855;28;20104;-60
2021/03/17 06:07:59;;;;;;;5.93;5.38;;;9.20;65.40;;;;;;2067027;28;20106;-60
2021/03/17 06:09:22;;;;;;;5.43;4.93;;;9.10;65.70;;;;;;2064016;28;20065;-61
2021/03/17 06:10:44;;;;;;;5.72;5.20;;;9.10;65.50;;;;;;2066690;28;20041;-60
2021/03/17 06:12:08;;;;;;;5.82;5.22;;;9.20;65.50;;;;;;2064121;28;20674;-61
2021/03/17 06:13:33;;;;;;;5.65;5.05;;;9.20;65.50;;;;;;2064678;28;20473;-60
2021/03/17 06:14:55;;;;;;;6.35;5.38;;;9.10;65.60;;;;;;2064905;28;20120;-60
2021/03/17 06:16:20;;;;;;;5.93;5.40;;;9.20;65.50;;;;;;2062941;28;20124;-60
2021/03/17 06:17:44;;;;;;;5.72;5.20;;;9.10;65.60;;;;;;2062184;28;20057;-60
2021/03/17 06:19:06;;;;;;;5.32;4.82;;;9.10;65.60;;;;;;2067313;28;20457;-60
2021/03/17 06:20:27;;;;;;;5.95;5.45;;;9.10;65.60;;;;;;2066909;28;20449;-60
2021/03/17 06:21:49;;;;;;;5.63;5.13;;;9.10;65.60;;;;;;2066169;28;20026;-60
2021/03/17 06:23:11;;;;;;;5.97;5.47;;;9.10;65.80;;;;;;2060998;28;20420;-61
2021/03/17 06:24:34;;;;;;;5.68;5.18;;;9.10;65.90;;;;;;2066460;28;20121;-60
2021/03/17 06:25:57;;;;;;;6.07;5.55;;;9.10;66.00;;;;;;2064554;28;20038;-60
2021/03/17 06:27:19;;;;;;;5.95;5.45;;;9.10;66.00;;;;;;2062522;28;20037;-60
2021/03/17 06:28:41;;;;;;;6.72;6.03;;;9.10;66.00;;;;;;2055088;28;20049;-60
2021/03/17 06:30:04;;;;;;;6.22;5.63;;;9.10;66.20;;;;;;2060201;28;20108;-60
2021/03/17 06:31:26;;;;;;;6.05;5.45;;;9.10;66.30;;;;;;2062019;28;20034;-60
2021/03/17 06:32:47;;;;;;;6.30;5.63;;;9.10;66.40;;;;;;2064221;28;20479;-60
2021/03/17 06:34:08;;;;;;;6.68;6.07;;;9.10;66.50;;;;;;2063858;28;20093;-60
2021/03/17 06:35:29;;;;;;;6.05;5.55;;;9.10;66.60;;;;;;2063330;28;20037;-60
2021/03/17 06:36:57;;;;;;;6.20;5.60;;;9.10;66.70;;;;;;2067594;28;20092;-60
2021/03/17 06:38:23;;;;;;;6.75;6.15;;;9.10;66.90;;;;;;2064027;28;20077;-60
2021/03/17 06:39:44;;;;;;;6.20;5.65;;;9.10;66.90;;;;;;2067960;28;20521;-60
2021/03/17 06:41:05;;;;;;;6.55;5.95;;;9.10;66.70;;;;;;2063255;28;20694;-60
2021/03/17 06:42:40;;;;;;;6.47;5.88;;;9.10;66.90;;;;;;2063718;28;20134;-61
2021/03/17 06:44:03;;;;;;;6.45;5.85;;;9.10;67.30;;;;;;2063827;28;20034;-60
2021/03/17 06:45:40;;;;;;;6.30;5.70;;;9.10;67.00;;;;;;2063310;28;20045;-60
2021/03/17 06:47:20;;;;;;;6.25;5.75;;;9.10;67.20;;;;;;2066425;28;20029;-60
2021/03/17 06:48:41;;;;;;;;;;;9.10;67.30;;;;;;2062861;28;20037;-61
2021/03/17 06:50:08;;;;;;;6.05;5.45;;;9.10;67.70;;;;;;2070982;28;20059;-60
2021/03/17 06:51:30;;;;;;;6.68;5.97;;;9.10;67.40;;;;;;2062680;28;20339;-60
2021/03/17 06:52:51;;;;;;;6.85;6.25;;;9.10;66.60;;;;;;2063460;28;20450;-60
2021/03/17 06:54:12;;;;;;;6.18;5.63;;;9.10;66.70;;;;;;2061940;28;20117;-60
2021/03/17 06:55:33;;;;;;;5.85;5.30;;;9.10;66.90;;;;;;2058324;28;20034;-60
2021/03/17 06:56:53;;;;;;;6.07;5.57;;;9.10;66.90;;;;;;2064603;28;20033;-60
2021/03/17 06:58:37;;;;;;;6.22;5.63;;;9.10;67.10;;;;;;2061042;28;20030;-61
2021/03/17 07:00:21;;;;;;;6.38;5.60;;;9.10;68.10;;;;;;2063370;28;20034;-60
2021/03/17 07:01:43;;;;;;;6.00;5.40;;;9.10;67.80;;;;;;2062320;28;20472;-60
2021/03/17 07:03:11;;;;;;;5.50;4.97;;;9.20;67.30;;;;;;2061694;28;20053;-60
2021/03/17 07:04:35;;;;;;;5.47;5.00;;;9.10;67.30;;;;;;2061512;28;20422;-60
2021/03/17 07:05:56;;;;;;;5.32;4.90;;;9.20;67.30;;;;;;2063251;28;20042;-60
2021/03/17 07:07:20;;;;;;;5.88;5.38;;;9.20;67.30;;;;;;2062279;28;20027;-61
2021/03/17 07:08:41;;;;;;;6.90;5.72;;;9.20;67.30;;;;;;2062289;28;20041;-61
2021/03/17 07:10:02;;;;;;;5.45;4.95;;;9.20;67.20;;;;;;2062923;28;20046;-60
2021/03/17 07:11:29;;;;;;;6.18;5.32;;;9.20;67.20;;;;;;2060713;28;20038;-60
2021/03/17 07:12:53;;;;;;;5.82;5.10;;;9.20;67.20;;;;;;2062983;28;20038;-60
2021/03/17 07:14:14;;;;;;;5.50;5.00;;;9.20;67.30;;;;;;2059265;28;20046;-60
2021/03/17 07:15:37;;;;;;;5.07;4.57;;;9.20;67.20;;;;;;2063299;28;20759;-60
2021/03/17 07:16:59;;;;;;;5.47;4.97;;;9.20;67.30;;;;;;2061436;28;20485;-60
2021/03/17 07:18:23;;;;;;;4.88;4.43;;;9.30;67.20;;;;;;2054632;28;20118;-60
2021/03/17 07:19:44;;;;;;;4.68;4.32;;;9.30;67.30;;;;;;2060999;28;20105;-60
2021/03/17 07:21:06;;;;;;;4.25;3.95;;;9.30;67.20;;;;;;2054686;28;20078;-60
2021/03/17 07:22:26;;;;;;;5.53;4.43;;;9.30;67.10;;;;;;2057438;28;20034;-60